Time;durP1;ratioP1;P1;durP2;ratioP2;P2;SDS_P1;SDS_P2;PMS_P1;PMS_P2;Temp;Humidity;BMP_temperature;BMP_pressure;BME280_temperature;BME280_humidity;BME280_pressure;Samples;Min_cycle;Max_cycle;Signal;HPM_P1;HPM_P2
2023/12/02 00:00:32;;;;;;;16.67;6.75;;;0.50;99.90;;;;;;5094972;28;20452;-87
2023/12/02 00:02:58;;;;;;;16.13;7.63;;;0.50;99.90;;;;;;5095348;28;20048;-87
2023/12/02 00:05:23;;;;;;;17.60;8.43;;;0.40;99.90;;;;;;5096445;28;20039;-87
2023/12/02 00:07:49;;;;;;;20.33;7.30;;;0.50;99.90;;;;;;5114805;28;20048;-87
2023/12/02 00:10:14;;;;;;;18.23;8.45;;;0.40;99.90;;;;;;5109943;28;20031;-87
2023/12/02 00:12:40;;;;;;;19.55;7.65;;;0.40;99.90;;;;;;5107825;28;20063;-87
2023/12/02 00:15:07;;;;;;;18.23;8.77;;;0.40;99.90;;;;;;5095223;28;20043;-87
2023/12/02 00:17:33;;;;;;;20.15;8.70;;;0.40;99.90;;;;;;5094745;28;20024;-86
2023/12/02 00:19:59;;;;;;;17.85;7.97;;;0.40;99.90;;;;;;5094526;28;20046;-86
2023/12/02 00:22:24;;;;;;;15.38;7.05;;;0.40;99.90;;;;;;5094948;28;20035;-86
2023/12/02 00:24:50;;;;;;;20.05;9.10;;;0.40;99.90;;;;;;5094776;28;20509;-86
2023/12/02 00:27:17;;;;;;;20.77;9.77;;;0.40;99.90;;;;;;5111438;28;20096;-87
2023/12/02 00:29:43;;;;;;;19.98;9.25;;;0.40;99.90;;;;;;5111615;28;20084;-85
2023/12/02 00:32:08;;;;;;;15.70;7.10;;;0.40;99.90;;;;;;5111439;28;20043;-87
2023/12/02 00:34:34;;;;;;;16.27;7.70;;;0.40;99.90;;;;;;5126767;27;20034;-86
2023/12/02 00:37:00;;;;;;;16.95;7.88;;;0.40;99.90;;;;;;5111310;28;20043;-86
2023/12/02 00:39:25;;;;;;;19.80;9.52;;;0.40;99.90;;;;;;5110878;28;20061;-86
2023/12/02 00:41:51;;;;;;;18.35;7.60;;;0.40;99.90;;;;;;5094312;28;20061;-86
2023/12/02 00:44:16;;;;;;;20.75;8.52;;;0.40;99.90;;;;;;5110966;28;20490;-86
2023/12/02 00:46:42;;;;;;;18.67;9.43;;;0.40;99.90;;;;;;5094879;28;20384;-87
2023/12/02 00:49:08;;;;;;;22.73;10.90;;;0.40;99.90;;;;;;5093846;28;20039;-87
2023/12/02 00:51:33;;;;;;;16.83;7.75;;;0.40;99.90;;;;;;5093835;28;20523;-87
2023/12/02 00:53:59;;;;;;;17.40;6.22;;;0.40;99.90;;;;;;5111274;28;20035;-87
2023/12/02 00:56:24;;;;;;;20.15;8.02;;;0.40;99.90;;;;;;5110202;28;20047;-87
2023/12/02 00:58:50;;;;;;;20.55;8.52;;;0.40;99.90;;;;;;5093693;28;20035;-87
2023/12/02 01:01:15;;;;;;;16.92;6.53;;;0.30;99.90;;;;;;5093414;28;20050;-87
2023/12/02 01:03:41;;;;;;;19.25;8.70;;;0.30;99.90;;;;;;5093811;28;20507;-87
2023/12/02 01:06:07;;;;;;;19.40;7.60;;;0.30;99.90;;;;;;5110574;28;20084;-86
2023/12/02 01:08:33;;;;;;;18.73;9.90;;;0.30;99.90;;;;;;5110548;28;20054;-86
2023/12/02 01:10:58;;;;;;;19.63;8.73;;;0.30;99.90;;;;;;5093707;28;20050;-87
2023/12/02 01:13:24;;;;;;;20.52;8.80;;;0.20;99.90;;;;;;5093600;28;20032;-87
2023/12/02 01:15:49;;;;;;;22.08;9.32;;;0.20;99.90;;;;;;5110772;28;20031;-86
2023/12/02 01:18:15;;;;;;;17.08;7.57;;;0.20;99.90;;;;;;5110096;28;20402;-87
2023/12/02 01:20:41;;;;;;;19.17;7.63;;;0.10;99.90;;;;;;5093289;28;20036;-86
2023/12/02 01:23:06;;;;;;;17.67;8.00;;;0.10;99.90;;;;;;5110911;28;20422;-86
2023/12/02 01:25:32;;;;;;;16.38;7.43;;;0.00;99.90;;;;;;5110831;28;20115;-86
2023/12/02 01:27:57;;;;;;;20.55;8.85;;;0.00;99.90;;;;;;5086883;28;20048;-86
2023/12/02 01:30:24;;;;;;;16.42;6.88;;;0.00;99.90;;;;;;5093400;28;20088;-87
2023/12/02 01:32:50;;;;;;;14.43;7.00;;;0.00;99.90;;;;;;5110678;28;20524;-86
2023/12/02 01:35:15;;;;;;;16.80;8.20;;;0.00;99.90;;;;;;5110593;28;20112;-87
2023/12/02 01:37:41;;;;;;;13.73;6.63;;;-0.10;99.90;;;;;;5092863;28;20028;-87
2023/12/02 01:40:07;;;;;;;16.92;8.10;;;-0.10;99.90;;;;;;5093182;28;20120;-86
2023/12/02 01:42:33;;;;;;;16.27;6.80;;;-0.10;99.90;;;;;;5093825;28;20039;-86
2023/12/02 01:44:59;;;;;;;15.85;6.65;;;-0.10;99.90;;;;;;5110377;28;20700;-87
2023/12/02 01:47:24;;;;;;;17.88;7.38;;;-0.10;99.90;;;;;;5092903;28;20035;-87
2023/12/02 01:49:51;;;;;;;20.33;9.05;;;-0.10;99.90;;;;;;5110199;28;20067;-87
2023/12/02 01:52:17;;;;;;;23.38;10.07;;;-0.10;99.90;;;;;;5110168;28;20048;-87
2023/12/02 01:54:43;;;;;;;17.73;7.85;;;0.00;99.90;;;;;;5092677;28;20032;-87
2023/12/02 01:57:09;;;;;;;16.50;7.43;;;0.00;99.90;;;;;;5091993;28;20490;-87
2023/12/02 01:59:44;;;;;;;19.23;8.45;;;-0.10;99.90;;;;;;5109306;28;20054;-87
2023/12/02 02:02:09;;;;;;;16.40;7.95;;;0.00;99.90;;;;;;5092311;28;20036;-88
2023/12/02 02:04:35;;;;;;;23.13;10.63;;;0.00;99.90;;;;;;5092097;28;20043;-88
2023/12/02 02:07:01;;;;;;;19.20;9.38;;;-0.10;99.90;;;;;;5109391;28;20502;-88
2023/12/02 02:09:33;;;;;;;22.10;9.85;;;-0.10;99.90;;;;;;5091836;28;20044;-87
2023/12/02 02:11:59;;;;;;;18.67;7.65;;;-0.10;99.90;;;;;;5106802;28;20513;-87
2023/12/02 02:14:24;;;;;;;18.00;7.63;;;-0.10;99.90;;;;;;5120999;27;20067;-87
2023/12/02 02:16:50;;;;;;;16.95;8.68;;;-0.10;99.90;;;;;;5092722;28;20067;-87
2023/12/02 02:19:18;;;;;;;18.42;8.35;;;-0.10;99.90;;;;;;5109789;28;20038;-87
2023/12/02 02:21:43;;;;;;;18.92;9.13;;;-0.10;99.90;;;;;;5091999;28;20050;-87
2023/12/02 02:24:09;;;;;;;20.25;8.82;;;-0.10;99.90;;;;;;5110269;28;20040;-87
2023/12/02 02:26:34;;;;;;;17.63;8.88;;;-0.20;99.90;;;;;;5095335;28;20108;-87
2023/12/02 02:29:00;;;;;;;16.92;7.05;;;-0.20;99.90;;;;;;5099936;28;20046;-87
2023/12/02 02:31:26;;;;;;;18.63;7.88;;;-0.20;99.90;;;;;;5114824;28;20057;-87
2023/12/02 02:33:51;;;;;;;16.38;8.88;;;-0.20;99.90;;;;;;5109843;28;20032;-87
2023/12/02 02:36:17;;;;;;;18.08;7.80;;;-0.20;99.90;;;;;;5143991;27;20039;-87
2023/12/02 02:38:43;;;;;;;14.50;7.28;;;-0.20;99.90;;;;;;5109077;28;20039;-87
2023/12/02 02:41:09;;;;;;;19.00;7.93;;;-0.20;99.90;;;;;;5092556;28;20064;-87
2023/12/02 02:43:35;;;;;;;16.65;6.38;;;-0.20;99.90;;;;;;5109825;28;20154;-87
2023/12/02 02:46:00;;;;;;;18.05;8.25;;;-0.20;99.90;;;;;;5109546;28;20173;-87
2023/12/02 02:48:26;;;;;;;16.73;7.10;;;-0.20;99.90;;;;;;5109589;28;20081;-87
2023/12/02 02:50:52;;;;;;;21.55;9.93;;;-0.20;99.90;;;;;;5108692;28;20115;-87
2023/12/02 02:53:17;;;;;;;20.25;9.45;;;-0.30;99.90;;;;;;5091728;28;20040;-87
2023/12/02 02:55:43;;;;;;;18.65;9.23;;;-0.30;99.90;;;;;;5109755;28;20038;-87
2023/12/02 02:58:09;;;;;;;20.60;9.63;;;-0.30;99.90;;;;;;5108972;28;20042;-86
2023/12/02 03:00:34;;;;;;;18.08;8.30;;;-0.30;99.90;;;;;;5092067;28;20031;-87
2023/12/02 03:03:00;;;;;;;18.83;9.02;;;-0.30;99.90;;;;;;5109516;28;20388;-87
2023/12/02 03:05:25;;;;;;;19.55;9.02;;;-0.30;99.90;;;;;;5109079;28;20035;-87
2023/12/02 03:07:51;;;;;;;21.42;10.38;;;-0.30;99.90;;;;;;5093031;28;20044;-87
2023/12/02 03:10:16;;;;;;;16.10;9.02;;;-0.30;99.90;;;;;;5092497;28;20043;-87
2023/12/02 03:12:42;;;;;;;23.63;10.80;;;-0.30;99.90;;;;;;5109334;28;20570;-87
2023/12/02 03:15:08;;;;;;;19.23;8.65;;;-0.30;99.90;;;;;;5109761;28;20042;-87
2023/12/02 03:17:33;;;;;;;21.73;9.25;;;-0.30;99.90;;;;;;5092332;28;20036;-87
2023/12/02 03:19:59;;;;;;;15.98;7.18;;;-0.30;99.90;;;;;;5109503;28;20070;-86
2023/12/02 03:22:25;;;;;;;15.65;7.47;;;-0.30;99.90;;;;;;5108780;28;20051;-86
2023/12/02 03:24:51;;;;;;;21.63;9.90;;;-0.30;99.90;;;;;;5108794;28;20122;-86
2023/12/02 03:27:17;;;;;;;25.33;11.73;;;-0.30;99.90;;;;;;5109213;28;20100;-87
2023/12/02 03:29:42;;;;;;;16.75;8.50;;;-0.30;99.90;;;;;;5110815;28;20047;-86
2023/12/02 03:32:08;;;;;;;21.45;9.98;;;-0.30;99.90;;;;;;5113025;28;20038;-86
2023/12/02 03:34:33;;;;;;;22.95;9.82;;;-0.30;99.90;;;;;;5095909;28;20491;-86
2023/12/02 03:36:59;;;;;;;16.35;7.88;;;-0.30;99.90;;;;;;5113128;28;20097;-86
2023/12/02 03:39:24;;;;;;;17.48;8.75;;;-0.30;99.90;;;;;;5095523;28;20106;-87
2023/12/02 03:41:50;;;;;;;18.08;8.70;;;-0.30;99.90;;;;;;5112707;28;20106;-87
2023/12/02 03:44:15;;;;;;;26.20;11.43;;;-0.20;99.90;;;;;;5095997;28;20050;-87
2023/12/02 03:46:43;;;;;;;18.95;7.63;;;-0.20;99.90;;;;;;5095807;28;20502;-87
2023/12/02 03:49:08;;;;;;;16.73;7.28;;;-0.20;99.90;;;;;;5112928;28;20047;-87
2023/12/02 03:51:34;;;;;;;18.13;8.98;;;-0.20;99.90;;;;;;5112524;28;20031;-87
2023/12/02 03:53:59;;;;;;;17.70;8.38;;;-0.20;99.90;;;;;;5095700;28;20560;-86
2023/12/02 03:56:25;;;;;;;20.30;9.50;;;-0.20;99.90;;;;;;5095839;28;20118;-87
2023/12/02 03:58:50;;;;;;;21.80;9.18;;;-0.20;99.90;;;;;;5095137;28;20125;-87
2023/12/02 04:01:17;;;;;;;22.30;9.13;;;-0.20;99.90;;;;;;5112205;28;20045;-87
2023/12/02 04:03:43;;;;;;;20.10;9.55;;;-0.20;99.90;;;;;;5112282;28;20035;-87
2023/12/02 04:06:09;;;;;;;21.65;9.98;;;-0.20;99.90;;;;;;5095760;28;20105;-87
2023/12/02 04:08:35;;;;;;;21.33;10.52;;;-0.20;99.90;;;;;;5111980;28;20545;-88
2023/12/02 04:11:00;;;;;;;23.70;10.77;;;-0.10;99.90;;;;;;5111923;28;20036;-87
2023/12/02 04:13:26;;;;;;;18.27;9.10;;;-0.10;99.90;;;;;;5111922;28;20570;-87
2023/12/02 04:15:51;;;;;;;19.35;8.30;;;-0.10;99.90;;;;;;5095402;28;20410;-87
2023/12/02 04:18:17;;;;;;;17.90;9.65;;;-0.10;99.90;;;;;;5111389;28;20040;-87
2023/12/02 04:20:43;;;;;;;22.20;8.35;;;-0.10;99.90;;;;;;5111660;28;20081;-87
2023/12/02 04:23:08;;;;;;;17.25;6.88;;;-0.20;99.90;;;;;;5094444;28;20490;-88
2023/12/02 04:25:34;;;;;;;19.92;8.45;;;-0.20;99.90;;;;;;5112380;28;20529;-87
2023/12/02 04:28:00;;;;;;;17.45;7.78;;;-0.20;99.90;;;;;;5095112;28;20036;-87
2023/12/02 04:30:27;;;;;;;17.02;7.97;;;-0.20;99.90;;;;;;5111873;28;20039;-87
2023/12/02 04:32:52;;;;;;;20.42;9.18;;;-0.20;99.90;;;;;;5111739;28;20506;-87
2023/12/02 04:35:18;;;;;;;18.02;7.30;;;-0.20;99.90;;;;;;5111791;28;20043;-87
2023/12/02 04:37:43;;;;;;;22.23;10.18;;;-0.20;99.90;;;;;;5112986;28;20081;-87
2023/12/02 04:40:11;;;;;;;18.25;8.93;;;-0.20;99.90;;;;;;5110972;28;20516;-88
2023/12/02 04:42:39;;;;;;;20.17;8.13;;;-0.20;99.90;;;;;;5093947;28;20074;-87
2023/12/02 04:45:05;;;;;;;22.17;8.65;;;-0.20;99.90;;;;;;5112748;28;20043;-88
2023/12/02 04:47:31;;;;;;;21.38;9.43;;;-0.20;99.90;;;;;;5096658;28;20046;-88
2023/12/02 04:49:57;;;;;;;18.63;8.35;;;-0.20;99.90;;;;;;5126686;28;20039;-87
2023/12/02 04:52:23;;;;;;;20.75;8.52;;;-0.20;99.90;;;;;;5103082;28;20040;-88
2023/12/02 04:54:49;;;;;;;18.70;8.50;;;-0.20;99.90;;;;;;5111558;28;20387;-87
2023/12/02 04:57:14;;;;;;;21.33;9.63;;;-0.20;99.90;;;;;;5110846;28;20039;-88
2023/12/02 04:59:40;;;;;;;24.13;10.15;;;-0.20;99.90;;;;;;5110856;28;20040;-87
2023/12/02 05:02:06;;;;;;;23.80;12.00;;;-0.20;99.90;;;;;;5094054;28;20035;-88
2023/12/02 05:04:31;;;;;;;28.58;10.60;;;-0.30;99.90;;;;;;5094717;28;20035;-88
2023/12/02 05:06:57;;;;;;;19.85;9.50;;;-0.30;99.90;;;;;;5094696;28;20690;-87
2023/12/02 05:09:22;;;;;;;20.40;9.35;;;-0.30;99.90;;;;;;5111226;28;20069;-88
2023/12/02 05:11:48;;;;;;;14.43;7.97;;;-0.30;99.90;;;;;;5123652;27;20088;-87
2023/12/02 05:14:14;;;;;;;19.20;9.73;;;-0.40;99.90;;;;;;5122767;27;20032;-88
2023/12/02 05:16:43;;;;;;;14.65;7.72;;;-0.40;99.90;;;;;;5093615;28;20038;-87
2023/12/02 05:19:08;;;;;;;16.75;8.02;;;-0.40;99.90;;;;;;5093098;28;20487;-88
2023/12/02 05:21:36;;;;;;;16.25;7.95;;;-0.40;99.90;;;;;;5110165;28;20054;-88
2023/12/02 05:24:02;;;;;;;19.60;8.48;;;-0.40;99.90;;;;;;5110584;28;20506;-88
2023/12/02 05:26:28;;;;;;;16.77;9.52;;;-0.50;99.90;;;;;;5111095;28;20050;-87
2023/12/02 05:28:53;;;;;;;18.25;7.65;;;-0.50;99.90;;;;;;5110740;28;20042;-88
2023/12/02 05:31:19;;;;;;;15.18;6.55;;;-0.40;99.90;;;;;;5092806;28;20487;-88
2023/12/02 05:33:46;;;;;;;19.30;8.07;;;-0.40;99.90;;;;;;5109914;28;20067;-87
2023/12/02 05:36:12;;;;;;;19.60;9.85;;;-0.40;99.90;;;;;;5093832;28;20547;-87
2023/12/02 05:38:38;;;;;;;16.58;7.43;;;-0.40;99.90;;;;;;5110237;28;20036;-87
2023/12/02 05:41:04;;;;;;;17.55;8.85;;;-0.40;99.90;;;;;;5110398;28;20074;-87
2023/12/02 05:43:30;;;;;;;16.85;7.68;;;-0.40;99.90;;;;;;5110052;28;20046;-87
2023/12/02 05:45:56;;;;;;;9.65;6.05;;;-0.40;99.90;;;;;;5110592;28;20085;-87
2023/12/02 05:48:21;;;;;;;13.63;6.28;;;-0.40;99.90;;;;;;5100716;28;20503;-87
2023/12/02 05:50:47;;;;;;;14.90;6.47;;;-0.40;99.90;;;;;;5093716;28;20089;-87
2023/12/02 05:53:13;;;;;;;16.85;7.10;;;-0.40;99.90;;;;;;5109668;28;20612;-87
2023/12/02 05:55:38;;;;;;;18.58;7.85;;;-0.40;99.90;;;;;;5092331;28;20063;-87
2023/12/02 05:58:04;;;;;;;13.38;5.15;;;-0.40;99.90;;;;;;5110116;28;20126;-87
2023/12/02 06:00:29;;;;;;;16.77;8.35;;;-0.40;99.90;;;;;;5109006;28;20049;-87
2023/12/02 06:02:55;;;;;;;10.32;5.75;;;-0.40;99.90;;;;;;5083835;28;20039;-87
2023/12/02 06:05:20;;;;;;;7.50;4.40;;;-0.40;99.90;;;;;;5092661;28;20050;-87
2023/12/02 06:07:46;;;;;;;15.13;7.90;;;-0.40;99.90;;;;;;5109482;28;20130;-87
2023/12/02 06:10:12;;;;;;;13.25;5.95;;;-0.40;99.90;;;;;;5091912;28;20517;-87
2023/12/02 06:12:37;;;;;;;11.52;5.43;;;-0.40;99.90;;;;;;5129645;27;20039;-87
2023/12/02 06:15:04;;;;;;;9.73;4.82;;;-0.40;99.90;;;;;;5115494;27;20077;-87
2023/12/02 06:17:31;;;;;;;12.88;5.97;;;-0.40;99.90;;;;;;5110156;28;20510;-87
2023/12/02 06:19:57;;;;;;;18.05;8.43;;;-0.40;99.90;;;;;;5110071;28;20047;-86
2023/12/02 06:22:22;;;;;;;14.25;6.05;;;-0.40;99.90;;;;;;5109483;28;20100;-87
2023/12/02 06:24:48;;;;;;;11.80;6.00;;;-0.40;99.90;;;;;;5092626;28;20520;-86
2023/12/02 06:27:13;;;;;;;9.68;4.95;;;-0.40;99.90;;;;;;5109965;28;20119;-86
2023/12/02 06:29:39;;;;;;;13.77;5.57;;;-0.40;99.90;;;;;;5085100;28;20039;-86
2023/12/02 06:32:05;;;;;;;14.18;7.07;;;-0.40;99.90;;;;;;5109617;28;20534;-87
2023/12/02 06:34:30;;;;;;;15.50;8.30;;;-0.40;99.90;;;;;;5110147;28;20055;-86
2023/12/02 06:36:56;;;;;;;10.57;5.80;;;-0.50;99.90;;;;;;5109585;28;20036;-86
2023/12/02 06:39:22;;;;;;;14.43;7.15;;;-0.40;99.90;;;;;;5084613;28;20092;-85
2023/12/02 06:41:47;;;;;;;12.32;6.07;;;-0.40;99.90;;;;;;5109923;28;20050;-87
2023/12/02 06:44:13;;;;;;;11.82;5.45;;;-0.40;99.90;;;;;;5109433;28;20039;-87
2023/12/02 06:46:38;;;;;;;18.42;7.85;;;-0.40;99.90;;;;;;5109670;28;20164;-86
2023/12/02 06:49:04;;;;;;;21.05;7.65;;;-0.40;99.90;;;;;;5092998;28;20126;-87
2023/12/02 06:51:29;;;;;;;19.45;8.07;;;-0.40;99.90;;;;;;5109754;28;20036;-87
2023/12/02 06:53:58;;;;;;;20.45;7.95;;;-0.40;99.90;;;;;;5091946;28;20043;-87
2023/12/02 06:56:25;;;;;;;23.05;8.48;;;-0.40;99.90;;;;;;5092348;28;20081;-87
2023/12/02 06:58:52;;;;;;;19.02;7.28;;;-0.40;99.90;;;;;;5109286;28;20040;-86
2023/12/02 07:01:32;;;;;;;16.75;7.35;;;-0.40;99.90;;;;;;5092089;28;20043;-87
2023/12/02 07:03:59;;;;;;;11.90;4.80;;;-0.50;99.90;;;;;;5096035;28;20044;-87
2023/12/02 07:06:25;;;;;;;18.95;8.75;;;-0.50;99.90;;;;;;5104815;28;20035;-87
2023/12/02 07:08:52;;;;;;;17.88;7.43;;;-0.50;99.90;;;;;;5104272;28;20043;-87
2023/12/02 07:11:20;;;;;;;14.20;6.00;;;-0.40;99.90;;;;;;5128480;28;20065;-87
2023/12/02 07:13:45;;;;;;;11.93;6.03;;;-0.50;99.90;;;;;;5096437;28;20039;-87
2023/12/02 07:16:11;;;;;;;12.13;6.28;;;-0.50;99.90;;;;;;5113539;28;20122;-87
2023/12/02 07:18:37;;;;;;;17.65;7.82;;;-0.40;99.90;;;;;;5113703;28;20449;-87
2023/12/02 07:21:03;;;;;;;13.10;6.90;;;-0.50;99.90;;;;;;5113001;28;20148;-87
2023/12/02 07:23:29;;;;;;;10.15;3.92;;;-0.50;99.90;;;;;;5112306;28;20472;-87
2023/12/02 07:25:55;;;;;;;11.07;4.82;;;-0.50;99.90;;;;;;5096127;28;20403;-87
2023/12/02 07:28:22;;;;;;;13.82;6.45;;;-0.50;99.90;;;;;;5113327;28;20067;-87
2023/12/02 07:30:50;;;;;;;10.25;6.57;;;-0.50;99.90;;;;;;5096332;28;20042;-87
2023/12/02 07:33:18;;;;;;;8.68;4.05;;;-0.50;99.90;;;;;;5095284;28;20067;-86
2023/12/02 07:35:44;;;;;;;9.48;4.30;;;-0.50;99.90;;;;;;5094635;28;20076;-87
2023/12/02 07:38:09;;;;;;;14.95;7.47;;;-0.50;99.90;;;;;;5112994;28;20032;-87
2023/12/02 07:40:35;;;;;;;16.85;8.02;;;-0.50;99.90;;;;;;5112658;28;20044;-87
2023/12/02 07:43:01;;;;;;;17.58;8.75;;;-0.50;99.90;;;;;;5095438;28;20392;-86
2023/12/02 07:45:27;;;;;;;15.40;6.05;;;-0.50;99.90;;;;;;5112541;28;20043;-86
2023/12/02 07:47:53;;;;;;;18.90;8.07;;;-0.50;99.90;;;;;;5112634;28;20039;-87
2023/12/02 07:50:19;;;;;;;25.98;10.95;;;-0.40;99.90;;;;;;5112853;28;20043;-87
2023/12/02 07:52:45;;;;;;;15.10;6.50;;;-0.50;99.90;;;;;;5095013;28;20050;-87
2023/12/02 07:55:12;;;;;;;16.55;5.25;;;-0.40;99.90;;;;;;5095618;28;20558;-87
2023/12/02 07:57:37;;;;;;;21.45;8.43;;;-0.50;99.90;;;;;;5095556;28;20559;-86
2023/12/02 08:00:04;;;;;;;11.23;4.47;;;-0.50;99.90;;;;;;5129075;27;20031;-87
2023/12/02 08:02:30;;;;;;;15.88;5.78;;;-0.40;99.90;;;;;;5111229;28;20077;-87
2023/12/02 08:04:57;;;;;;;18.02;8.30;;;-0.40;99.90;;;;;;5095238;28;20047;-86
2023/12/02 08:07:22;;;;;;;12.85;6.13;;;-0.40;99.90;;;;;;5112324;28;20395;-87
2023/12/02 08:09:48;;;;;;;18.58;8.50;;;-0.40;99.90;;;;;;5094932;28;20077;-87
2023/12/02 08:12:14;;;;;;;15.00;7.20;;;-0.40;99.90;;;;;;5103405;28;20040;-87
2023/12/02 08:14:39;;;;;;;19.10;8.65;;;-0.40;99.90;;;;;;5120575;27;20031;-86
2023/12/02 08:17:05;;;;;;;19.90;8.70;;;-0.40;99.90;;;;;;5095521;28;20066;-86
2023/12/02 08:19:31;;;;;;;17.60;6.35;;;-0.40;99.90;;;;;;5112389;28;20479;-86
2023/12/02 08:21:56;;;;;;;19.85;7.47;;;-0.40;99.90;;;;;;5094663;28;20673;-87
2023/12/02 08:24:22;;;;;;;12.32;7.53;;;-0.30;99.90;;;;;;5111116;28;20044;-86
2023/12/02 08:26:47;;;;;;;16.42;7.43;;;-0.30;99.90;;;;;;5094723;28;20078;-86
2023/12/02 08:29:14;;;;;;;11.75;6.00;;;-0.30;99.90;;;;;;5111518;28;20046;-86
2023/12/02 08:31:39;;;;;;;12.43;6.72;;;-0.30;99.90;;;;;;5107811;28;20115;-86
2023/12/02 08:34:05;;;;;;;22.08;10.02;;;-0.30;99.90;;;;;;5140250;27;20202;-86
2023/12/02 08:36:30;;;;;;;13.23;5.95;;;-0.30;99.90;;;;;;5095062;28;20043;-86
2023/12/02 08:38:56;;;;;;;13.63;6.38;;;-0.30;99.90;;;;;;5094850;28;20044;-86
2023/12/02 08:41:22;;;;;;;12.82;7.50;;;-0.30;99.90;;;;;;5111220;28;20039;-87
2023/12/02 08:43:47;;;;;;;18.23;5.95;;;-0.30;99.90;;;;;;5094662;28;20044;-87
2023/12/02 08:46:17;;;;;;;11.20;6.60;;;-0.20;99.90;;;;;;5094077;28;20127;-86
2023/12/02 08:48:43;;;;;;;12.40;6.40;;;-0.20;99.90;;;;;;5093505;28;20453;-87
2023/12/02 08:51:09;;;;;;;15.20;6.22;;;-0.20;99.90;;;;;;5094512;28;20089;-87
2023/12/02 08:53:34;;;;;;;10.52;3.97;;;-0.20;99.90;;;;;;5094066;28;20043;-87
2023/12/02 08:56:00;;;;;;;8.52;4.63;;;-0.20;99.90;;;;;;5094078;28;20046;-87
2023/12/02 08:58:26;;;;;;;13.70;8.70;;;-0.20;99.90;;;;;;5111366;28;20410;-87
2023/12/02 09:00:51;;;;;;;16.20;7.38;;;-0.20;99.90;;;;;;5093199;28;20456;-87
2023/12/02 09:03:17;;;;;;;13.23;4.43;;;-0.10;99.90;;;;;;5092833;28;20050;-87
2023/12/02 09:05:43;;;;;;;15.90;7.97;;;-0.10;99.90;;;;;;5093124;28;20126;-87
2023/12/02 09:08:09;;;;;;;21.70;9.75;;;-0.10;99.90;;;;;;5110828;28;20087;-87
2023/12/02 09:10:34;;;;;;;15.15;6.65;;;-0.10;99.90;;;;;;5113769;27;20089;-87
2023/12/02 09:13:00;;;;;;;16.52;8.13;;;-0.10;99.90;;;;;;5131457;27;20047;-87
2023/12/02 09:15:40;;;;;;;19.63;7.13;;;-0.10;99.90;;;;;;5096237;28;20047;-87
2023/12/02 09:18:07;;;;;;;12.80;4.38;;;-0.10;99.90;;;;;;5109355;28;20558;-87
2023/12/02 09:20:45;;;;;;;11.60;5.97;;;-0.10;99.90;;;;;;5110486;28;20050;-87
2023/12/02 09:23:12;;;;;;;18.25;7.78;;;-0.10;99.90;;;;;;5107399;28;20039;-87
2023/12/02 09:25:39;;;;;;;17.25;7.38;;;-0.10;99.90;;;;;;5089111;28;20490;-87
2023/12/02 09:28:07;;;;;;;17.10;8.00;;;-0.10;99.90;;;;;;5110645;28;20088;-86
2023/12/02 09:30:35;;;;;;;12.40;8.07;;;0.00;99.90;;;;;;5111499;28;20043;-87
2023/12/02 09:33:04;;;;;;;18.75;7.35;;;0.00;99.90;;;;;;5092443;28;20040;-87
2023/12/02 09:35:30;;;;;;;15.55;6.90;;;-0.10;99.90;;;;;;5092871;28;20101;-87
2023/12/02 09:37:57;;;;;;;13.95;8.32;;;0.00;99.90;;;;;;5093252;28;20035;-87
2023/12/02 09:40:32;;;;;;;23.30;10.27;;;0.00;99.90;;;;;;5093853;28;20491;-87
2023/12/02 09:43:21;;;;;;;19.27;9.30;;;0.00;99.90;;;;;;5110400;28;20083;-87
2023/12/02 09:46:15;;;;;;;12.68;6.32;;;0.00;99.90;;;;;;5093390;28;20048;-87
2023/12/02 09:48:53;;;;;;;12.48;6.05;;;0.10;99.90;;;;;;5103540;28;20051;-87
2023/12/02 09:51:28;;;;;;;11.27;4.97;;;0.10;99.90;;;;;;5110573;28;20337;-88
2023/12/02 09:54:09;;;;;;;22.35;9.88;;;0.10;99.90;;;;;;5093436;28;20036;-87
2023/12/02 09:56:41;;;;;;;7.90;3.47;;;0.10;99.90;;;;;;5110244;28;20054;-87
2023/12/02 09:59:19;;;;;;;7.25;4.18;;;0.10;99.90;;;;;;5110435;28;20216;-88
2023/12/02 10:02:03;;;;;;;11.40;6.05;;;0.00;99.90;;;;;;5110069;28;20661;-87
2023/12/02 10:05:06;;;;;;;16.17;6.90;;;0.10;99.90;;;;;;5110119;28;20047;-87
2023/12/02 10:08:11;;;;;;;20.40;8.70;;;0.10;99.90;;;;;;5093437;28;20044;-87
2023/12/02 10:10:49;;;;;;;19.08;8.60;;;0.10;99.90;;;;;;5109976;28;20043;-87
2023/12/02 10:13:19;;;;;;;16.25;8.27;;;0.10;99.90;;;;;;5091382;28;20069;-87
2023/12/02 10:15:48;;;;;;;18.48;7.80;;;0.20;99.90;;;;;;5085475;28;20513;-87
2023/12/02 10:18:17;;;;;;;17.73;7.43;;;0.20;99.90;;;;;;5093013;28;20038;-87
2023/12/02 10:20:44;;;;;;;16.70;6.55;;;0.20;99.90;;;;;;5110301;28;20114;-87
2023/12/02 10:23:32;;;;;;;20.27;7.43;;;0.20;99.90;;;;;;5092649;28;20071;-87
2023/12/02 10:26:23;;;;;;;19.27;7.95;;;0.30;99.90;;;;;;5109788;28;20047;-87
2023/12/02 10:28:51;;;;;;;8.07;4.32;;;0.30;99.90;;;;;;5093312;28;20046;-88
2023/12/02 10:31:25;;;;;;;9.00;4.57;;;0.40;99.90;;;;;;5110019;28;20254;-87
2023/12/02 10:34:16;;;;;;;11.43;6.32;;;0.40;99.90;;;;;;5092902;28;20093;-88
2023/12/02 10:36:46;;;;;;;12.90;5.93;;;0.40;99.90;;;;;;5110024;28;20028;-87
2023/12/02 10:39:29;;;;;;;13.52;5.68;;;0.40;99.90;;;;;;5094142;28;20036;-87
2023/12/02 10:42:02;;;;;;;13.73;5.40;;;0.40;99.90;;;;;;5113615;28;20062;-87
2023/12/02 10:44:32;;;;;;;15.00;7.03;;;0.50;99.90;;;;;;5097165;28;20047;-87
2023/12/02 10:46:59;;;;;;;12.50;5.32;;;0.50;99.90;;;;;;5097048;28;20050;-87
2023/12/02 10:49:27;;;;;;;23.08;9.32;;;0.50;99.90;;;;;;5096988;28;20454;-87
2023/12/02 10:51:53;;;;;;;23.48;10.50;;;0.50;99.90;;;;;;5114006;28;20040;-86
2023/12/02 10:54:24;;;;;;;23.27;10.98;;;0.50;99.90;;;;;;5113826;28;20032;-87
2023/12/02 10:56:51;;;;;;;23.67;10.10;;;0.60;99.90;;;;;;5148433;27;20034;-87
2023/12/02 10:59:21;;;;;;;33.17;13.50;;;0.60;99.90;;;;;;5096907;28;20069;-87
2023/12/02 11:02:24;;;;;;;20.05;9.45;;;0.70;99.90;;;;;;5097338;28;20039;-87
2023/12/02 11:05:02;;;;;;;20.13;8.80;;;0.70;99.90;;;;;;5112922;28;20054;-87
2023/12/02 11:07:31;;;;;;;19.27;7.38;;;0.70;99.90;;;;;;5113657;28;20044;-87
2023/12/02 11:10:03;;;;;;;19.20;7.65;;;0.80;99.90;;;;;;5113419;28;20105;-87
2023/12/02 11:12:40;;;;;;;20.20;8.85;;;0.80;99.90;;;;;;5113478;27;20046;-87
2023/12/02 11:15:11;;;;;;;27.80;10.55;;;0.80;99.90;;;;;;5113673;28;20075;-87
2023/12/02 11:17:46;;;;;;;19.40;8.15;;;0.90;99.90;;;;;;5148056;27;20050;-87
2023/12/02 11:20:42;;;;;;;16.38;7.78;;;1.00;99.90;;;;;;5096557;28;20050;-87
2023/12/02 11:23:33;;;;;;;23.40;11.43;;;1.10;99.90;;;;;;5096167;28;20047;-86
2023/12/02 11:26:22;;;;;;;28.55;11.75;;;1.10;99.90;;;;;;5112532;28;20411;-87
2023/12/02 11:29:08;;;;;;;28.63;13.23;;;1.20;99.90;;;;;;5096187;28;20050;-88
2023/12/02 11:31:55;;;;;;;25.63;9.75;;;1.30;99.90;;;;;;5085047;28;20050;-87
2023/12/02 11:35:00;;;;;;;23.83;10.82;;;1.30;99.90;;;;;;5087251;28;20070;-87
2023/12/02 11:37:38;;;;;;;24.23;9.95;;;1.40;99.90;;;;;;5113016;28;20089;-87
2023/12/02 11:40:24;;;;;;;28.42;11.77;;;1.40;99.90;;;;;;5096354;28;20517;-87
2023/12/02 11:43:00;;;;;;;29.55;13.73;;;1.40;99.90;;;;;;5147351;27;20040;-87
2023/12/02 11:45:32;;;;;;;21.42;9.45;;;1.40;99.90;;;;;;5113726;28;20043;-87
2023/12/02 11:48:36;;;;;;;22.13;9.80;;;1.40;99.90;;;;;;5097541;28;20051;-87
2023/12/02 11:51:20;;;;;;;25.08;10.40;;;1.50;99.90;;;;;;5022232;28;20175;-87
2023/12/02 11:54:30;;;;;;;26.38;12.25;;;1.60;99.90;;;;;;5090322;28;20046;-87
2023/12/02 11:57:03;;;;;;;24.67;11.18;;;1.90;99.90;;;;;;5099885;28;20156;-87
2023/12/02 11:59:52;;;;;;;21.27;10.23;;;2.50;99.90;;;;;;5095569;28;20455;-89
2023/12/02 12:02:49;;;;;;;17.08;8.90;;;2.90;99.90;;;;;;5095707;28;20093;-87
2023/12/02 12:05:42;;;;;;;17.40;7.68;;;3.30;99.90;;;;;;5112385;28;20043;-89
2023/12/02 12:08:16;;;;;;;25.42;12.15;;;3.80;99.90;;;;;;5124974;27;20051;-88
2023/12/02 12:10:43;;;;;;;23.63;11.25;;;4.20;99.90;;;;;;5099160;27;20047;-88
2023/12/02 12:13:11;;;;;;;26.25;10.35;;;4.20;99.90;;;;;;5132974;27;20050;-88
2023/12/02 12:15:38;;;;;;;23.45;10.10;;;4.10;99.90;;;;;;5112855;27;20032;-88
2023/12/02 12:18:04;;;;;;;20.20;9.57;;;4.10;99.90;;;;;;5146893;27;20398;-88
2023/12/02 12:20:31;;;;;;;16.58;7.75;;;4.00;99.90;;;;;;5112630;28;20122;-88
2023/12/02 12:22:57;;;;;;;25.35;10.73;;;4.10;99.90;;;;;;5111950;28;20051;-88
2023/12/02 12:25:28;;;;;;;24.65;12.48;;;4.10;99.90;;;;;;5094910;28;20503;-89
2023/12/02 12:28:00;;;;;;;28.83;11.70;;;3.90;99.90;;;;;;5094808;28;20055;-88
2023/12/02 12:30:26;;;;;;;26.40;11.48;;;3.80;99.90;;;;;;5094507;28;20110;-88
2023/12/02 12:32:51;;;;;;;25.50;12.05;;;3.60;99.90;;;;;;5111709;28;20177;-88
2023/12/02 12:35:18;;;;;;;27.83;11.20;;;3.40;99.90;;;;;;5111938;28;20193;-88
2023/12/02 12:37:45;;;;;;;22.23;9.93;;;3.20;99.90;;;;;;5095079;28;20043;-88
2023/12/02 12:40:14;;;;;;;20.95;9.73;;;3.00;99.90;;;;;;5094872;28;20040;-88
2023/12/02 12:42:50;;;;;;;19.05;8.35;;;2.90;99.90;;;;;;5110749;28;20032;-88
2023/12/02 12:45:16;;;;;;;17.67;8.98;;;2.80;99.90;;;;;;5110849;28;20089;-87
2023/12/02 12:47:42;;;;;;;20.90;8.68;;;2.70;99.90;;;;;;5110657;28;20035;-88